Takle, Norway

7:57 PM CET on December 10, 2016 (GMT +0100)
Lindas | | Change Station

Elev 335 ft 60.75 °N, 5.16 °E | Updated 7 minutes ago

Rain
Rain
44.1 °F
Feels Like 44 °F
N
3.0
Wind Variable Wind from SW
Gusts 7.0 mph

Today
High -- | Low -- °F
--% Chance of Precip.
Yesterday
High -- | Low -- °F
Precip. -- in
Pressure 29.68 in
Visibility 6.2 miles
Clouds Few 3400 ft
Scattered Clouds 4600 ft
Overcast 8000 ft
Windchill 44 °F
Dew Point 42 °F
Humidity 92%
Rainfall 0.04 in
Snow Depth Not available.
9:39 AM 3:22 PM
Waxing Gibbous, 85% visible
METAR ENFL 101850Z AUTO 23013KT 9999NDV -SHRA FEW034/// SCT046/// OVC080/// 07/06 Q1005
Pressure 29.68 in
Visibility 6.2 miles
Clouds Few 3400 ft
Scattered Clouds 4600 ft
Overcast 8000 ft
Windchill 44 °F
Dew Point 42 °F
Humidity 92%
Rainfall 0.04 in
Snow Depth Not available.
9:39 AM 3:22 PM
Waxing Gibbous, 85% visible
METAR ENFL 101850Z AUTO 23013KT 9999NDV -SHRA FEW034/// SCT046/// OVC080/// 07/06 Q1005

10-Day Weather Forecast

×

Almanac

Astronomy

Dec. 10, 2016 Rise Set
Actual Time
Civil Twilight
Nautical Twilight
Astronomical Twilight
Moon
Length of Visible Light
Length of Day
Tomorrow will be .
, % of the Moon is Illuminated

Today's Extremes

Country Highs Country Lows

Community

WunderPhotos

Upload Photos

1,956,620 photos uploaded!

WunderBlog® & News

Nearby

Air Quality

  Air Quality AQ Index Pollutant
Not available.

Snow Depth

Station Depth Elevation

Earthquake Activity

City Distance Mag. Time & Date
Minimum magnitude displayed is 2.5.

Coastal Water Temperatures

Place Temperature

Stations

Nearby Weather Stations

Station Location Temp. Windchill Dew Point Humidity Wind Precip. Elev Updated Type